Terminal Aerodrome Forecast
Issued by NWS

Home | Current Version | Previous Version | Text Only | Print | Product List | Glossary On
Versions: 1 2 3 4 5 6 7 8 9 10 11 12 13 14 15 16
000
FTUS43 KDVN 150500
TAFCID
TAF
KCID 150520Z 1506/1606 16004KT P6SM SCT050 BKN120
      TEMPO 1512/1514 -SHRA BKN025
     FM151400 14005KT 4SM -RA BR BKN025 OVC050
     FM151800 34012KT P6SM OVC025
      TEMPO 1518/1520 -SHRA
     FM152000 35012KT P6SM BKN040
     FM160100 34003KT P6SM SKC=

USA.gov is the U.S. government's official web portal to all federal, state and local government web resources and services.